Time;durP1;ratioP1;P1;durP2;ratioP2;P2;SDS_P1;SDS_P2;PMS_P1;PMS_P2;Temp;Humidity;BMP_temperature;BMP_pressure;BME280_temperature;BME280_humidity;BME280_pressure;Samples;Min_cycle;Max_cycle;Signal;HPM_P1;HPM_P2
2023/02/28 00:00:38;;;;;;;4.67;3.43;;;21.80;32.80;;;;;;5053422;28;20048;-60
2023/02/28 00:03:05;;;;;;;4.38;3.40;;;21.80;32.90;;;;;;5052123;28;20088;-61
2023/02/28 00:05:33;;;;;;;4.43;3.50;;;21.80;32.90;;;;;;5053706;28;20055;-61
2023/02/28 00:08:00;;;;;;;3.75;3.35;;;21.70;32.80;;;;;;5053669;28;20049;-60
2023/02/28 00:10:30;;;;;;;3.70;3.10;;;21.80;32.90;;;;;;5053587;28;20053;-61
2023/02/28 00:13:04;;;;;;;4.65;3.70;;;21.70;32.80;;;;;;5054015;28;20052;-61
2023/02/28 00:15:33;;;;;;;5.13;3.65;;;21.70;32.80;;;;;;5052198;28;20041;-61
2023/02/28 00:18:01;;;;;;;4.40;3.75;;;21.80;32.80;;;;;;5053483;28;20049;-61
2023/02/28 00:20:29;;;;;;;3.47;2.85;;;21.70;32.80;;;;;;5053013;28;20049;-61
2023/02/28 00:22:56;;;;;;;3.75;3.25;;;21.70;32.80;;;;;;5053335;28;20107;-60
2023/02/28 00:25:25;;;;;;;4.15;3.33;;;21.70;32.80;;;;;;5053538;28;20128;-61
2023/02/28 00:27:52;;;;;;;4.85;3.55;;;21.70;32.80;;;;;;5053880;28;20049;-60
2023/02/28 00:30:22;;;;;;;4.45;3.22;;;21.70;32.80;;;;;;5051534;28;20067;-61
2023/02/28 00:32:50;;;;;;;5.15;3.83;;;21.70;32.80;;;;;;5053595;28;20128;-61
2023/02/28 00:35:17;;;;;;;4.90;3.47;;;21.70;32.80;;;;;;5053372;28;20128;-61
2023/02/28 00:37:45;;;;;;;4.30;3.25;;;21.70;32.80;;;;;;5053302;28;20094;-61
2023/02/28 00:40:12;;;;;;;3.53;3.20;;;21.70;32.80;;;;;;5053258;28;20153;-60
2023/02/28 00:42:40;;;;;;;3.85;3.05;;;21.70;32.80;;;;;;5053393;28;20045;-61
2023/02/28 00:45:08;;;;;;;3.25;2.95;;;21.70;32.80;;;;;;5053292;28;20064;-60
2023/02/28 00:47:35;;;;;;;4.05;2.92;;;21.70;32.80;;;;;;5053102;28;20136;-61
2023/02/28 00:50:03;;;;;;;3.58;3.08;;;21.70;32.80;;;;;;5053506;28;20052;-60
2023/02/28 00:52:31;;;;;;;2.92;2.53;;;21.70;32.90;;;;;;5052329;28;20099;-60
2023/02/28 00:54:58;;;;;;;3.15;2.83;;;21.70;32.80;;;;;;5053112;28;20115;-61
2023/02/28 00:57:26;;;;;;;3.92;2.97;;;21.70;32.80;;;;;;5053210;28;20607;-61
2023/02/28 00:59:54;;;;;;;3.78;2.92;;;21.70;32.80;;;;;;5051885;28;20079;-61
2023/02/28 01:02:22;;;;;;;4.13;2.90;;;21.70;32.90;;;;;;5053441;28;20123;-61
2023/02/28 01:04:50;;;;;;;2.97;2.50;;;21.60;32.90;;;;;;5053358;28;20447;-60
2023/02/28 01:07:17;;;;;;;2.88;2.60;;;21.60;32.80;;;;;;5052930;28;20076;-60
2023/02/28 01:09:44;;;;;;;3.53;3.05;;;21.70;32.90;;;;;;5052614;28;20049;-61
2023/02/28 01:12:11;;;;;;;3.33;2.42;;;21.70;32.90;;;;;;5052378;28;20131;-60
2023/02/28 01:14:38;;;;;;;3.88;3.00;;;21.70;32.90;;;;;;5053046;28;20124;-61
2023/02/28 01:17:05;;;;;;;2.83;2.42;;;21.60;32.80;;;;;;5052392;28;20588;-60
2023/02/28 01:19:33;;;;;;;3.30;2.47;;;21.60;32.90;;;;;;5053070;28;20121;-61
2023/02/28 01:22:02;;;;;;;3.17;2.83;;;21.60;32.90;;;;;;5052332;28;20123;-61
2023/02/28 01:24:29;;;;;;;2.50;2.30;;;21.60;32.90;;;;;;5053210;28;20124;-61
2023/02/28 01:26:56;;;;;;;2.97;2.67;;;21.60;32.90;;;;;;5052768;28;20449;-60
2023/02/28 01:29:23;;;;;;;2.83;2.50;;;21.60;32.90;;;;;;5052711;28;20051;-61
2023/02/28 01:31:51;;;;;;;2.58;2.38;;;21.60;32.90;;;;;;5052460;28;20132;-61
2023/02/28 01:34:19;;;;;;;2.30;2.10;;;21.60;32.90;;;;;;5052759;28;20058;-60
2023/02/28 01:36:46;;;;;;;3.35;2.45;;;21.60;32.90;;;;;;5051441;28;20143;-61
2023/02/28 01:39:13;;;;;;;3.13;2.60;;;21.60;32.90;;;;;;5052148;28;20091;-60
2023/02/28 01:41:40;;;;;;;3.83;2.55;;;21.60;32.80;;;;;;5052940;28;20428;-60
2023/02/28 01:44:47;;;;;;;2.72;2.30;;;21.60;32.80;;;;;;5052739;28;20404;-60
2023/02/28 01:47:15;;;;;;;3.00;2.28;;;21.60;32.80;;;;;;5052806;28;20137;-60
2023/02/28 01:49:42;;;;;;;2.72;2.28;;;21.60;32.80;;;;;;5052369;28;20085;-61
2023/02/28 01:52:17;;;;;;;3.83;2.60;;;21.60;32.80;;;;;;5052844;28;20053;-60
2023/02/28 01:54:57;;;;;;;3.72;2.67;;;21.60;32.80;;;;;;5052801;28;20049;-61
2023/02/28 01:57:31;;;;;;;2.47;2.28;;;21.60;32.80;;;;;;5052894;28;20045;-60
2023/02/28 02:00:07;;;;;;;2.90;2.50;;;21.60;32.80;;;;;;5055393;28;20416;-60
2023/02/28 02:02:36;;;;;;;2.55;2.35;;;21.60;32.80;;;;;;5056334;28;20059;-61
2023/02/28 02:05:10;;;;;;;2.63;2.42;;;21.60;32.80;;;;;;5056490;28;20415;-60
2023/02/28 02:07:41;;;;;;;2.10;1.92;;;21.60;32.80;;;;;;5056145;28;20045;-60
2023/02/28 02:10:16;;;;;;;;;;;21.60;32.80;;;;;;5055943;28;20459;-60
2023/02/28 02:13:22;;;;;;;3.13;2.72;;;21.60;32.80;;;;;;5055196;28;20284;-61
2023/02/28 02:16:16;;;;;;;2.60;2.40;;;21.60;32.80;;;;;;5055664;28;20041;-60
2023/02/28 02:18:53;;;;;;;2.50;2.30;;;21.60;32.80;;;;;;5055570;28;20045;-61
2023/02/28 02:21:54;;;;;;;2.10;1.90;;;21.60;32.80;;;;;;5055889;28;20140;-60
2023/02/28 02:25:01;;;;;;;2.08;1.92;;;21.60;32.90;;;;;;5088076;28;20136;-61
2023/02/28 02:27:58;;;;;;;2.03;1.85;;;21.60;32.80;;;;;;5055779;28;20073;-61
2023/02/28 02:31:05;;;;;;;2.65;2.10;;;21.60;32.90;;;;;;5054939;28;20063;-60
2023/02/28 02:34:12;;;;;;;2.20;1.92;;;21.60;32.90;;;;;;5054506;28;20102;-61
2023/02/28 02:36:51;;;;;;;2.47;2.22;;;21.60;32.90;;;;;;5055946;28;20437;-61
2023/02/28 02:39:44;;;;;;;2.03;1.90;;;21.50;32.80;;;;;;5055838;28;20453;-60
2023/02/28 02:42:22;;;;;;;2.03;1.83;;;21.60;32.90;;;;;;5055050;28;20076;-60
2023/02/28 02:44:58;;;;;;;2.97;2.55;;;21.60;32.90;;;;;;5055424;28;20483;-61
2023/02/28 02:47:29;;;;;;;2.40;2.03;;;21.50;32.90;;;;;;5055450;28;20136;-60
2023/02/28 02:50:01;;;;;;;2.50;2.30;;;21.50;32.90;;;;;;5054704;28;20059;-61
2023/02/28 02:52:41;;;;;;;2.40;2.20;;;21.50;32.80;;;;;;5055699;28;20084;-60
2023/02/28 02:55:11;;;;;;;2.42;2.22;;;21.50;32.90;;;;;;5055504;28;20148;-60
2023/02/28 02:57:48;;;;;;;3.95;2.20;;;21.50;32.90;;;;;;5055241;28;20053;-62
2023/02/28 03:00:21;;;;;;;2.65;2.45;;;21.50;32.90;;;;;;5053505;28;20048;-61
2023/02/28 03:02:52;;;;;;;2.38;1.83;;;21.50;32.90;;;;;;5054245;28;20457;-60
2023/02/28 03:05:34;;;;;;;2.55;2.08;;;21.50;32.90;;;;;;5054962;28;20080;-61
2023/02/28 03:08:05;;;;;;;2.47;2.28;;;21.50;32.90;;;;;;5053392;28;20053;-60
2023/02/28 03:10:39;;;;;;;3.20;2.28;;;21.50;32.90;;;;;;5053948;28;20055;-61
2023/02/28 03:13:45;;;;;;;2.30;2.10;;;21.50;32.90;;;;;;5055137;28;20471;-61
2023/02/28 03:16:32;;;;;;;2.22;2.03;;;21.50;32.90;;;;;;5054333;28;20073;-61
2023/02/28 03:19:19;;;;;;;1.75;1.65;;;21.50;32.90;;;;;;5054660;28;20044;-60
2023/02/28 03:22:23;;;;;;;2.58;2.30;;;21.50;33.00;;;;;;5053754;28;20084;-61
2023/02/28 03:25:08;;;;;;;2.65;2.15;;;21.50;32.90;;;;;;5054663;28;20041;-61
2023/02/28 03:28:02;;;;;;;2.05;1.85;;;21.50;32.90;;;;;;5054722;28;20048;-61
2023/02/28 03:30:53;;;;;;;1.92;1.73;;;21.50;32.90;;;;;;5054051;28;20073;-60
2023/02/28 03:33:30;;;;;;;2.30;1.67;;;21.50;32.90;;;;;;5054711;28;20408;-61
2023/02/28 03:36:10;;;;;;;3.38;2.08;;;21.50;32.90;;;;;;5053441;28;20099;-61
2023/02/28 03:39:02;;;;;;;2.65;2.42;;;21.50;33.40;;;;;;5054507;28;20057;-61
2023/02/28 03:41:36;;;;;;;3.10;2.50;;;21.50;32.80;;;;;;5053243;28;20085;-61
2023/02/28 03:44:15;;;;;;;2.05;1.80;;;21.50;32.80;;;;;;5054150;28;20049;-61
2023/02/28 03:46:54;;;;;;;2.83;2.28;;;21.50;32.90;;;;;;5054255;28;20511;-60
2023/02/28 03:49:26;;;;;;;2.00;1.80;;;21.50;32.90;;;;;;5034307;28;20156;-61
2023/02/28 03:51:56;;;;;;;2.22;2.03;;;21.50;32.80;;;;;;5034590;28;20046;-61
2023/02/28 03:54:28;;;;;;;1.67;1.57;;;21.50;32.90;;;;;;5034244;28;20081;-61
2023/02/28 03:57:03;;;;;;;2.20;2.03;;;21.50;32.90;;;;;;5033335;28;20285;-61
2023/02/28 03:59:46;;;;;;;2.55;1.98;;;21.50;32.90;;;;;;5033994;28;20128;-61
2023/02/28 04:02:13;;;;;;;2.15;1.80;;;21.50;32.90;;;;;;5034318;28;20124;-61
2023/02/28 04:04:44;;;;;;;2.47;2.00;;;21.40;32.80;;;;;;5033951;28;20095;-60
2023/02/28 04:07:12;;;;;;;2.55;1.80;;;21.50;32.90;;;;;;5043171;28;20127;-60
2023/02/28 04:09:39;;;;;;;2.58;2.13;;;21.50;32.80;;;;;;5053412;28;20048;-61
2023/02/28 04:12:07;;;;;;;2.88;2.00;;;21.50;32.90;;;;;;5053401;28;20047;-60
2023/02/28 04:14:34;;;;;;;1.73;1.52;;;21.50;32.80;;;;;;5053666;28;20088;-61
2023/02/28 04:17:01;;;;;;;2.00;1.90;;;21.50;32.80;;;;;;5054028;28;20053;-61
2023/02/28 04:19:28;;;;;;;1.75;1.65;;;21.40;32.80;;;;;;5053863;28;20053;-61
2023/02/28 04:21:55;;;;;;;1.70;1.60;;;21.40;32.80;;;;;;5052844;28;20560;-61
2023/02/28 04:24:25;;;;;;;2.13;1.77;;;21.40;32.80;;;;;;5053498;28;20049;-60
2023/02/28 04:26:55;;;;;;;1.77;1.60;;;21.40;32.80;;;;;;5052187;28;20052;-61
2023/02/28 04:29:32;;;;;;;2.23;1.93;;;21.40;32.80;;;;;;5053324;28;20478;-61
2023/02/28 04:32:01;;;;;;;1.77;1.58;;;21.40;32.80;;;;;;5047395;28;20049;-61
2023/02/28 04:34:31;;;;;;;1.55;1.45;;;21.40;32.80;;;;;;5044241;28;20037;-61
2023/02/28 04:37:00;;;;;;;1.42;1.30;;;21.40;32.80;;;;;;5040996;28;20088;-61
2023/02/28 04:39:43;;;;;;;2.22;1.65;;;21.40;32.80;;;;;;5033228;28;20049;-61
2023/02/28 04:42:12;;;;;;;1.65;1.55;;;21.40;32.80;;;;;;5033628;28;20122;-61
2023/02/28 04:44:39;;;;;;;2.70;1.80;;;21.40;32.80;;;;;;5032881;28;20478;-61
2023/02/28 04:47:06;;;;;;;2.03;1.50;;;21.40;32.80;;;;;;5038639;28;20049;-61
2023/02/28 04:49:33;;;;;;;1.73;1.50;;;21.40;33.40;;;;;;5043898;28;20044;-60
2023/02/28 04:52:01;;;;;;;2.05;1.50;;;21.40;32.80;;;;;;5044066;28;20084;-61
2023/02/28 04:54:28;;;;;;;1.73;1.63;;;21.40;32.80;;;;;;5044329;28;20485;-61
2023/02/28 04:56:55;;;;;;;2.25;1.75;;;21.40;32.80;;;;;;5041492;28;20087;-61
2023/02/28 04:59:22;;;;;;;1.50;1.40;;;21.40;32.80;;;;;;5051453;28;20060;-61
2023/02/28 05:01:50;;;;;;;1.55;1.45;;;21.40;32.80;;;;;;5042732;28;20045;-61
2023/02/28 05:04:17;;;;;;;1.90;1.70;;;21.40;32.80;;;;;;5032759;28;20050;-61
2023/02/28 05:06:44;;;;;;;2.55;1.70;;;21.40;32.80;;;;;;5052454;28;20137;-60
2023/02/28 05:09:12;;;;;;;1.98;1.67;;;21.40;32.80;;;;;;5052346;28;20135;-61
2023/02/28 05:11:40;;;;;;;1.38;1.27;;;21.40;32.80;;;;;;5051185;28;20448;-61
2023/02/28 05:14:12;;;;;;;1.70;1.52;;;21.40;32.80;;;;;;5044609;28;20457;-61
2023/02/28 05:16:39;;;;;;;1.83;1.65;;;21.40;32.80;;;;;;5049103;28;20445;-60
2023/02/28 05:19:06;;;;;;;1.40;1.30;;;21.40;32.80;;;;;;5049286;28;20474;-60
2023/02/28 05:21:40;;;;;;;2.47;1.65;;;21.40;32.80;;;;;;5041324;28;20068;-60
2023/02/28 05:24:11;;;;;;;1.80;1.50;;;21.30;32.80;;;;;;5044256;28;20049;-60
2023/02/28 05:26:40;;;;;;;1.73;1.50;;;21.40;32.90;;;;;;5045227;28;20096;-60
2023/02/28 05:29:09;;;;;;;1.70;1.60;;;21.30;32.80;;;;;;5050550;28;20045;-60
2023/02/28 05:31:36;;;;;;;1.73;1.55;;;21.40;32.80;;;;;;5042827;28;20076;-60
2023/02/28 05:34:06;;;;;;;1.95;1.50;;;21.40;32.80;;;;;;5055031;28;20052;-61
2023/02/28 05:36:36;;;;;;;1.65;1.55;;;21.30;32.70;;;;;;5055293;28;20397;-60
2023/02/28 05:39:05;;;;;;;2.83;2.07;;;21.40;32.60;;;;;;5054705;28;20094;-60
2023/02/28 05:41:32;;;;;;;2.75;2.17;;;21.30;32.40;;;;;;5055645;28;20049;-60
2023/02/28 05:44:00;;;;;;;3.15;2.17;;;21.30;32.40;;;;;;5055502;28;20045;-60
2023/02/28 05:46:27;;;;;;;1.90;1.80;;;21.30;32.40;;;;;;5056846;28;20052;-60
2023/02/28 05:48:56;;;;;;;2.25;2.05;;;21.30;32.40;;;;;;5055069;28;20080;-60
2023/02/28 05:51:23;;;;;;;2.83;2.35;;;21.30;32.40;;;;;;5052565;28;20395;-60
2023/02/28 05:53:50;;;;;;;2.72;2.20;;;21.30;32.40;;;;;;5051487;28;20136;-60
2023/02/28 05:56:17;;;;;;;2.45;2.00;;;21.30;32.30;;;;;;5055249;28;20037;-60
2023/02/28 05:58:45;;;;;;;2.92;2.20;;;21.30;32.20;;;;;;5055549;28;20083;-60
2023/02/28 06:01:31;;;;;;;3.15;2.30;;;21.30;32.10;;;;;;5042883;28;20064;-60
2023/02/28 06:04:03;;;;;;;2.55;2.20;;;21.40;32.10;;;;;;5055879;28;20057;-60
2023/02/28 06:06:31;;;;;;;2.78;2.35;;;21.40;32.00;;;;;;5054371;28;20045;-61
2023/02/28 06:08:58;;;;;;;3.15;2.47;;;21.40;32.00;;;;;;5055421;28;20119;-61
2023/02/28 06:11:26;;;;;;;3.42;2.70;;;21.40;31.90;;;;;;5055784;28;20060;-61
2023/02/28 06:13:56;;;;;;;3.92;2.47;;;21.50;31.90;;;;;;5062858;28;20044;-61
2023/02/28 06:16:24;;;;;;;3.67;2.80;;;21.50;31.80;;;;;;5055847;28;20076;-61
2023/02/28 06:18:52;;;;;;;3.53;2.70;;;21.50;31.70;;;;;;5053895;28;20120;-61
2023/02/28 06:21:19;;;;;;;2.65;2.45;;;21.60;31.80;;;;;;5047685;28;20041;-61
2023/02/28 06:23:46;;;;;;;3.90;3.00;;;21.60;31.70;;;;;;5051012;28;20152;-61
2023/02/28 06:26:14;;;;;;;3.45;2.80;;;21.60;31.60;;;;;;5050762;28;20501;-61
2023/02/28 06:28:41;;;;;;;3.50;2.58;;;21.70;31.60;;;;;;5046301;28;20497;-59
2023/02/28 06:31:10;;;;;;;3.80;2.75;;;21.70;31.70;;;;;;5047300;28;20037;-60
2023/02/28 06:33:39;;;;;;;4.57;2.65;;;21.70;31.60;;;;;;5048554;28;20425;-61
2023/02/28 06:36:07;;;;;;;3.90;2.88;;;21.80;31.60;;;;;;5042010;28;20122;-61
2023/02/28 06:38:34;;;;;;;4.45;3.17;;;21.80;31.60;;;;;;5046469;28;20131;-61
2023/02/28 06:41:02;;;;;;;3.58;3.00;;;21.90;31.60;;;;;;5042073;28;20091;-60
2023/02/28 06:43:33;;;;;;;3.20;2.50;;;21.90;31.60;;;;;;5026491;28;20808;-62
2023/02/28 06:46:02;;;;;;;5.13;3.42;;;21.90;31.50;;;;;;5048466;28;20443;-62
2023/02/28 06:48:30;;;;;;;3.67;2.80;;;22.00;31.50;;;;;;5041672;28;20106;-61
2023/02/28 06:51:13;;;;;;;4.10;2.90;;;22.00;31.50;;;;;;5036533;28;20511;-62
2023/02/28 06:53:40;;;;;;;4.53;3.00;;;22.10;31.50;;;;;;5039383;28;20564;-62
2023/02/28 06:56:11;;;;;;;3.83;2.60;;;22.10;31.80;;;;;;5043554;28;20451;-62
2023/02/28 06:58:39;;;;;;;6.35;2.97;;;22.20;32.10;;;;;;5043081;28;20044;-61
2023/02/28 07:01:08;;;;;;;4.38;3.00;;;22.20;32.00;;;;;;5045613;28;20618;-62
2023/02/28 07:03:36;;;;;;;3.77;3.10;;;22.30;32.00;;;;;;5045435;28;20188;-60
2023/02/28 07:06:05;;;;;;;5.30;2.80;;;22.20;31.90;;;;;;5043894;28;20293;-60
2023/02/28 07:08:34;;;;;;;7.05;2.92;;;22.40;31.90;;;;;;5043275;28;20049;-60
2023/02/28 07:11:01;;;;;;;3.55;2.72;;;22.40;32.20;;;;;;5043621;28;20398;-60
2023/02/28 07:13:29;;;;;;;4.65;3.53;;;22.40;32.40;;;;;;5044833;28;20056;-60
2023/02/28 07:16:02;;;;;;;5.03;3.72;;;22.50;32.40;;;;;;5043829;28;20080;-58
2023/02/28 07:18:29;;;;;;;5.93;4.07;;;22.50;32.30;;;;;;5044606;28;20087;-59
2023/02/28 07:20:56;;;;;;;6.72;4.43;;;22.60;32.40;;;;;;5043277;28;20076;-60
2023/02/28 07:23:23;;;;;;;6.53;3.78;;;22.60;32.30;;;;;;5043819;28;20051;-61
2023/02/28 07:25:51;;;;;;;4.85;3.42;;;22.70;32.20;;;;;;5043717;28;21866;-60
2023/02/28 07:28:18;;;;;;;5.05;3.50;;;22.70;32.00;;;;;;5042838;28;20422;-59
2023/02/28 07:30:46;;;;;;;6.90;3.40;;;22.70;31.80;;;;;;5043784;28;20068;-60
2023/02/28 07:33:13;;;;;;;4.80;3.58;;;22.80;31.80;;;;;;5046113;28;20053;-60
2023/02/28 07:35:40;;;;;;;5.68;3.42;;;22.80;31.70;;;;;;5044793;28;20037;-59
2023/02/28 07:38:09;;;;;;;6.47;3.70;;;22.90;31.90;;;;;;5044296;28;20131;-58
2023/02/28 07:40:37;;;;;;;6.43;3.45;;;22.90;32.00;;;;;;5038343;28;20049;-61
2023/02/28 07:43:05;;;;;;;10.10;4.20;;;23.00;32.10;;;;;;5043070;28;20147;-60
2023/02/28 07:45:34;;;;;;;5.40;4.20;;;23.00;32.20;;;;;;5045054;28;20053;-61
2023/02/28 07:48:02;;;;;;;5.32;4.20;;;23.10;32.30;;;;;;5042848;28;20049;-58
2023/02/28 07:50:30;;;;;;;5.78;4.53;;;23.10;32.40;;;;;;5044566;28;20053;-60
2023/02/28 07:52:58;;;;;;;6.95;4.10;;;23.10;32.30;;;;;;5040274;28;20053;-62
2023/02/28 07:55:26;;;;;;;5.68;3.53;;;23.20;32.10;;;;;;5038115;28;20523;-60
2023/02/28 07:57:54;;;;;;;5.53;3.90;;;23.30;32.10;;;;;;5040767;28;20060;-59
2023/02/28 08:00:22;;;;;;;7.93;4.15;;;23.30;32.10;;;;;;5038935;28;20480;-60
2023/02/28 08:02:49;;;;;;;7.55;3.95;;;23.40;32.00;;;;;;5040043;28;20083;-60
2023/02/28 08:05:17;;;;;;;4.72;3.75;;;23.40;31.80;;;;;;5039708;28;20040;-60
2023/02/28 08:07:49;;;;;;;5.68;4.28;;;23.50;31.70;;;;;;5043690;28;20053;-59
2023/02/28 08:10:17;;;;;;;7.53;4.27;;;23.50;31.70;;;;;;5042253;28;20053;-59
2023/02/28 08:12:44;;;;;;;7.35;4.22;;;23.60;31.60;;;;;;5038936;28;20490;-60
2023/02/28 08:15:11;;;;;;;4.78;4.00;;;23.60;31.50;;;;;;5039947;28;20049;-61
2023/02/28 08:17:38;;;;;;;5.22;4.05;;;23.60;31.50;;;;;;5035863;28;20120;-61
2023/02/28 08:20:06;;;;;;;6.78;3.17;;;23.70;31.60;;;;;;5039598;28;20104;-59
2023/02/28 08:22:34;;;;;;;5.57;3.60;;;23.70;31.40;;;;;;5034891;28;21066;-58
2023/02/28 08:25:01;;;;;;;7.40;4.15;;;23.80;31.30;;;;;;5038083;28;20085;-59
2023/02/28 08:27:29;;;;;;;5.68;3.50;;;23.90;31.30;;;;;;5035362;28;20294;-58
2023/02/28 08:29:56;;;;;;;5.97;4.22;;;23.90;31.40;;;;;;5041915;28;20084;-57
2023/02/28 08:32:23;;;;;;;7.30;3.60;;;23.90;31.40;;;;;;5041176;28;20037;-60
2023/02/28 08:34:56;;;;;;;4.93;3.75;;;24.00;31.40;;;;;;5041194;28;20049;-60
2023/02/28 08:37:23;;;;;;;10.98;5.53;;;24.00;31.40;;;;;;5039477;28;20048;-60
2023/02/28 08:39:50;;;;;;;11.25;4.80;;;24.10;31.70;;;;;;5042730;28;20455;-62
2023/02/28 08:42:22;;;;;;;6.50;3.92;;;24.10;31.60;;;;;;5041229;28;21555;-62
2023/02/28 08:44:50;;;;;;;6.30;3.85;;;24.10;31.60;;;;;;5042681;28;20143;-63
2023/02/28 08:47:17;;;;;;;6.50;3.67;;;24.10;31.50;;;;;;5041630;28;20138;-60
2023/02/28 08:49:44;;;;;;;6.20;3.70;;;24.10;31.40;;;;;;5045658;28;20102;-59
2023/02/28 08:52:11;;;;;;;6.20;4.82;;;24.10;31.30;;;;;;5041621;28;20515;-61
2023/02/28 08:54:39;;;;;;;8.20;3.90;;;24.20;31.40;;;;;;5040046;28;20052;-61
2023/02/28 08:57:06;;;;;;;7.10;4.32;;;24.20;31.30;;;;;;5039791;28;20041;-60
2023/02/28 08:59:33;;;;;;;6.15;4.13;;;24.20;31.00;;;;;;5042329;28;20599;-60
2023/02/28 09:02:00;;;;;;;7.45;4.28;;;24.30;30.90;;;;;;5043506;28;20514;-61
2023/02/28 09:04:30;;;;;;;7.18;3.85;;;24.30;30.70;;;;;;5045238;28;20522;-59
2023/02/28 09:06:57;;;;;;;8.23;3.58;;;24.40;30.60;;;;;;5044171;28;20531;-59
2023/02/28 09:09:25;;;;;;;7.65;3.95;;;24.40;30.40;;;;;;5046133;28;20056;-59
2023/02/28 09:11:56;;;;;;;5.78;3.90;;;24.40;30.30;;;;;;5044451;28;20048;-60
2023/02/28 09:14:23;;;;;;;6.20;4.03;;;24.40;30.20;;;;;;5038670;28;20087;-60
2023/02/28 09:16:50;;;;;;;8.23;3.72;;;24.40;30.10;;;;;;5045369;28;20501;-60
2023/02/28 09:19:18;;;;;;;7.63;4.88;;;24.40;30.00;;;;;;5042414;28;20040;-60
2023/02/28 09:21:46;;;;;;;7.78;3.90;;;24.50;30.00;;;;;;5044504;28;20404;-60
2023/02/28 09:24:14;;;;;;;7.43;4.07;;;24.50;30.00;;;;;;5043240;28;20052;-61
2023/02/28 09:26:42;;;;;;;6.85;4.55;;;24.50;30.00;;;;;;5048454;28;20053;-61
2023/02/28 09:29:29;;;;;;;8.60;4.57;;;24.50;30.00;;;;;;5042959;28;20068;-61
2023/02/28 09:32:00;;;;;;;8.82;4.45;;;24.60;29.90;;;;;;5043179;28;20072;-60
2023/02/28 09:34:30;;;;;;;7.55;3.92;;;24.60;29.90;;;;;;5042247;28;20136;-60
2023/02/28 09:36:57;;;;;;;;;;;24.60;29.70;;;;;;5044791;28;20049;-60
2023/02/28 09:39:26;;;;;;;6.38;3.80;;;24.70;29.80;;;;;;5045455;28;20347;-59
2023/02/28 09:41:55;;;;;;;9.68;4.63;;;24.70;29.70;;;;;;5044219;28;20049;-60
2023/02/28 09:44:36;;;;;;;5.72;4.00;;;24.70;29.80;;;;;;5040437;28;20118;-60
2023/02/28 09:47:33;;;;;;;6.00;4.22;;;24.80;29.80;;;;;;5043834;28;20088;-60
2023/02/28 09:50:23;;;;;;;7.90;4.07;;;24.80;29.60;;;;;;5041120;28;20041;-60
2023/02/28 09:52:52;;;;;;;8.45;4.78;;;24.90;29.70;;;;;;5045204;28;20092;-60
2023/02/28 09:55:32;;;;;;;7.90;4.35;;;24.90;29.70;;;;;;5045307;28;20135;-61
2023/02/28 09:58:32;;;;;;;7.18;4.20;;;24.90;30.00;;;;;;5046795;28;20497;-57
2023/02/28 10:01:10;;;;;;;8.68;4.22;;;25.00;29.60;;;;;;5042417;28;20132;-54
2023/02/28 10:03:46;;;;;;;6.43;3.67;;;25.00;29.50;;;;;;5041548;28;20489;-61
2023/02/28 10:06:22;;;;;;;7.82;3.50;;;25.10;29.50;;;;;;5041611;28;20128;-62
2023/02/28 10:09:04;;;;;;;6.90;4.10;;;25.10;29.50;;;;;;5041067;28;20053;-61
2023/02/28 10:11:35;;;;;;;6.68;3.60;;;25.10;29.40;;;;;;5038248;28;20041;-61
2023/02/28 10:14:14;;;;;;;7.38;3.97;;;25.10;29.40;;;;;;5040557;28;20048;-61
2023/02/28 10:16:56;;;;;;;6.25;4.20;;;25.10;29.40;;;;;;5044232;28;20136;-61
2023/02/28 10:19:34;;;;;;;6.07;3.75;;;25.10;29.40;;;;;;5041150;28;20049;-61
2023/02/28 10:22:10;;;;;;;7.40;4.63;;;25.10;29.30;;;;;;5043628;28;20465;-61
2023/02/28 10:24:42;;;;;;;7.03;3.70;;;25.20;29.30;;;;;;5045333;28;20053;-62
2023/02/28 10:27:24;;;;;;;7.25;4.30;;;25.20;29.20;;;;;;5044380;28;20068;-61
2023/02/28 10:29:58;;;;;;;7.65;4.22;;;25.20;29.30;;;;;;5044744;28;20081;-61
2023/02/28 10:32:32;;;;;;;5.45;3.80;;;25.30;29.40;;;;;;5045419;28;20132;-61
2023/02/28 10:35:16;;;;;;;5.45;3.30;;;25.30;29.30;;;;;;5047954;28;20131;-61
2023/02/28 10:37:47;;;;;;;6.35;4.03;;;25.30;29.30;;;;;;5046185;28;20489;-62
2023/02/28 10:40:29;;;;;;;8.55;3.80;;;25.30;29.20;;;;;;5046677;28;20175;-60
2023/02/28 10:43:19;;;;;;;5.15;3.38;;;25.30;29.20;;;;;;5043095;28;20049;-62
2023/02/28 10:46:01;;;;;;;11.25;3.50;;;25.40;29.20;;;;;;5045793;28;20747;-62
2023/02/28 10:48:33;;;;;;;5.32;3.70;;;25.40;29.10;;;;;;5040711;28;20052;-61
2023/02/28 10:51:03;;;;;;;5.07;3.55;;;25.40;29.10;;;;;;5044846;28;20056;-60
2023/02/28 10:53:34;;;;;;;4.82;3.25;;;25.40;29.00;;;;;;5042006;28;20052;-60
2023/02/28 10:56:26;;;;;;;6.97;2.67;;;25.40;28.90;;;;;;5047799;28;20044;-62
2023/02/28 10:59:30;;;;;;;3.83;2.60;;;25.40;29.00;;;;;;5044030;28;20583;-61
2023/02/28 11:02:34;;;;;;;5.03;2.83;;;25.50;29.10;;;;;;5046537;28;20424;-61
2023/02/28 11:05:02;;;;;;;5.20;3.03;;;25.50;29.10;;;;;;5044126;28;20059;-61
2023/02/28 11:07:30;;;;;;;4.50;3.35;;;25.50;29.00;;;;;;5043916;28;20048;-60
2023/02/28 11:10:21;;;;;;;5.03;3.72;;;25.50;29.10;;;;;;5044792;28;20063;-59
2023/02/28 11:12:49;;;;;;;4.60;3.00;;;25.50;29.00;;;;;;5043089;28;20049;-59
2023/02/28 11:15:26;;;;;;;5.57;2.78;;;25.50;29.00;;;;;;5043855;28;20139;-59
2023/02/28 11:18:15;;;;;;;4.35;3.30;;;25.50;29.40;;;;;;5044443;28;20040;-59
2023/02/28 11:20:49;;;;;;;4.97;2.80;;;25.60;29.50;;;;;;5049025;28;20084;-60
2023/02/28 11:23:18;;;;;;;4.70;2.78;;;25.60;29.00;;;;;;5044752;28;20206;-57
2023/02/28 11:25:53;;;;;;;7.05;3.22;;;25.60;28.90;;;;;;5041565;28;20059;-60
2023/02/28 11:28:29;;;;;;;4.75;2.88;;;25.60;28.90;;;;;;5046854;28;20068;-59
2023/02/28 11:31:16;;;;;;;4.75;3.30;;;25.60;28.70;;;;;;5043726;28;20057;-59
2023/02/28 11:33:48;;;;;;;8.60;3.15;;;25.70;28.70;;;;;;5049432;28;20132;-60
2023/02/28 11:36:24;;;;;;;3.40;2.67;;;25.70;28.60;;;;;;5046255;28;20455;-59
2023/02/28 11:38:55;;;;;;;3.90;2.80;;;25.70;29.00;;;;;;5046868;28;20057;-59
2023/02/28 11:42:01;;;;;;;3.50;2.78;;;25.70;28.50;;;;;;5046741;28;20132;-59
2023/02/28 11:44:58;;;;;;;3.05;2.72;;;25.70;28.60;;;;;;5046560;28;20382;-59
2023/02/28 11:47:44;;;;;;;4.80;2.53;;;25.70;28.50;;;;;;5041461;28;20123;-58
2023/02/28 11:50:41;;;;;;;4.35;2.67;;;25.70;28.50;;;;;;5041097;28;20137;-58
2023/02/28 11:53:35;;;;;;;3.45;2.60;;;25.70;28.50;;;;;;5045010;28;20059;-60
2023/02/28 11:56:23;;;;;;;4.43;2.72;;;25.70;28.40;;;;;;5043463;28;20568;-59
2023/02/28 11:59:30;;;;;;;4.55;2.70;;;25.70;28.50;;;;;;5045186;28;20500;-59
2023/02/28 12:02:20;;;;;;;3.45;2.80;;;25.70;28.40;;;;;;5040280;28;20101;-58
2023/02/28 12:05:10;;;;;;;5.82;2.53;;;25.70;28.50;;;;;;5042862;28;20041;-59
2023/02/28 12:07:44;;;;;;;;;;;25.70;28.60;;;;;;5042014;28;20052;-55
2023/02/28 12:10:25;;;;;;;3.80;1.90;;;25.70;28.60;;;;;;5041331;28;20277;-58
2023/02/28 12:13:15;;;;;;;3.53;2.67;;;25.70;28.60;;;;;;5042732;28;20468;-58
2023/02/28 12:16:00;;;;;;;4.20;2.70;;;25.70;28.90;;;;;;5044230;28;20513;-60
2023/02/28 12:18:53;;;;;;;3.15;2.53;;;25.70;29.10;;;;;;5043935;28;20132;-59
2023/02/28 12:21:50;;;;;;;3.20;2.35;;;25.70;29.30;;;;;;5043434;28;20579;-59
2023/02/28 12:24:57;;;;;;;3.25;2.72;;;25.80;29.40;;;;;;5043200;28;20053;-59
2023/02/28 12:27:29;;;;;;;5.10;2.60;;;25.80;29.20;;;;;;5042813;28;20083;-60
2023/02/28 12:30:19;;;;;;;3.80;2.42;;;25.80;29.00;;;;;;5043445;28;20045;-59
2023/02/28 12:33:09;;;;;;;6.38;2.47;;;25.80;28.90;;;;;;5043000;28;20077;-60
2023/02/28 12:35:55;;;;;;;7.18;2.90;;;25.70;28.60;;;;;;5043652;28;20053;-60
2023/02/28 12:38:34;;;;;;;3.65;2.90;;;25.70;28.60;;;;;;5038417;28;20570;-60
2023/02/28 12:41:16;;;;;;;5.05;3.33;;;25.70;28.50;;;;;;5042548;28;20048;-59
2023/02/28 12:43:48;;;;;;;8.95;2.72;;;25.70;28.80;;;;;;5040084;28;20041;-61
2023/02/28 12:46:25;;;;;;;2.85;2.35;;;25.70;29.00;;;;;;5045946;28;20166;-61
2023/02/28 12:49:06;;;;;;;5.90;2.72;;;25.70;28.90;;;;;;5043589;28;20045;-58
2023/02/28 12:51:36;;;;;;;10.68;2.60;;;25.80;29.10;;;;;;5032655;28;20080;-58
2023/02/28 12:54:14;;;;;;;4.72;2.78;;;25.80;29.10;;;;;;5042825;28;21157;-58
2023/02/28 12:57:19;;;;;;;3.70;3.03;;;25.80;29.20;;;;;;5038198;28;20051;-60
2023/02/28 12:59:57;;;;;;;5.70;3.85;;;25.80;29.00;;;;;;5037717;28;20416;-61
2023/02/28 13:03:02;;;;;;;5.38;2.88;;;25.70;29.00;;;;;;5039845;28;20067;-59
2023/02/28 13:06:02;;;;;;;4.82;3.00;;;25.70;29.10;;;;;;5040307;28;20140;-59
2023/02/28 13:08:49;;;;;;;;;;;25.70;29.10;;;;;;5042724;28;20386;-60
2023/02/28 13:11:42;;;;;;;3.88;2.72;;;25.80;29.20;;;;;;5040760;28;19925;-62
2023/02/28 13:14:35;;;;;;;3.05;2.53;;;25.80;29.20;;;;;;5045704;28;20103;-59
2023/02/28 13:17:18;;;;;;;3.85;2.90;;;25.80;29.20;;;;;;5047631;28;20080;-58
2023/02/28 13:19:58;;;;;;;5.43;2.78;;;25.80;29.00;;;;;;5042786;28;20475;-59
2023/02/28 13:22:46;;;;;;;4.00;3.50;;;25.80;29.00;;;;;;5038858;28;20132;-60
2023/02/28 13:25:53;;;;;;;6.57;3.33;;;25.80;29.10;;;;;;5043452;28;20136;-60